TAF Text Data
IDs:
Format:
Raw Decoded Include METAR

Data at: 1921 UTC 21 Sep 2021

KOAJ 211744Z 2118/2218 12013G19KT P6SM VCTS BKN035CB
  FM220600 14006KT 6SM SHRA BKN025
  FM221500 14008G14KT 6SM -SHRA OVC022 AMD LTD TO CLD VIS AND WIND